Time;durP1;ratioP1;P1;durP2;ratioP2;P2;SDS_P1;SDS_P2;PMS_P1;PMS_P2;Temp;Humidity;BMP_temperature;BMP_pressure;BME280_temperature;BME280_humidity;BME280_pressure;Samples;Min_cycle;Max_cycle;Signal;HPM_P1;HPM_P2
2021/10/31 00:00:23;;;;;;;71.50;43.05;;;;;;;-140.66;100.00;55571.53;4943300;29;20058;-72
2021/10/31 00:03:08;;;;;;;81.65;44.83;;;;;;;-140.66;100.00;55571.53;4943239;29;20133;-73
2021/10/31 00:05:54;;;;;;;85.50;47.03;;;;;;;-140.66;100.00;55571.53;4942694;29;20114;-72
2021/10/31 00:08:40;;;;;;;90.63;47.60;;;;;;;-140.66;100.00;55571.53;4942891;29;20365;-73
2021/10/31 00:11:26;;;;;;;78.13;46.30;;;;;;;-140.66;100.00;55571.53;4958102;28;20110;-73
2021/10/31 00:14:12;;;;;;;72.72;45.72;;;;;;;-140.66;100.00;55571.53;4942625;29;20095;-73
2021/10/31 00:16:59;;;;;;;89.72;46.45;;;;;;;-140.66;100.00;55571.53;4957701;28;20027;-73
2021/10/31 00:19:45;;;;;;;72.30;47.38;;;;;;;-140.66;100.00;55571.53;4929317;29;20058;-72
2021/10/31 00:22:30;;;;;;;82.20;48.35;;;;;;;-140.66;100.00;55571.53;4943157;29;20402;-73
2021/10/31 00:25:16;;;;;;;67.95;46.10;;;;;;;-140.66;100.00;55571.53;4957760;28;20033;-73
2021/10/31 00:28:02;;;;;;;98.85;50.95;;;;;;;-140.66;100.00;55571.53;4957897;28;20111;-73
2021/10/31 00:30:48;;;;;;;74.28;45.97;;;;;;;-140.66;100.00;55571.53;4957491;28;20126;-73
2021/10/31 00:33:33;;;;;;;71.75;44.67;;;;;;;-140.66;100.00;55571.53;4942713;29;20094;-74
2021/10/31 00:36:19;;;;;;;121.63;52.30;;;;;;;-140.66;100.00;55571.53;4957028;28;20042;-73
2021/10/31 00:39:05;;;;;;;98.20;47.10;;;;;;;-140.66;100.00;55571.53;4957420;28;20070;-74
2021/10/31 00:41:51;;;;;;;158.10;50.58;;;;;;;-140.66;100.00;55571.53;4957929;28;20097;-73
2021/10/31 00:44:37;;;;;;;131.88;49.45;;;;;;;-140.66;100.00;55571.53;4957383;28;20035;-73
2021/10/31 00:47:23;;;;;;;111.22;45.13;;;;;;;-140.66;100.00;55571.53;4942371;29;20050;-72
2021/10/31 00:50:09;;;;;;;161.93;43.45;;;;;;;-140.66;100.00;55571.53;4956643;29;20118;-73
2021/10/31 00:52:56;;;;;;;86.57;44.05;;;;;;;-140.66;100.00;55571.53;4956907;28;20027;-72
2021/10/31 00:55:42;;;;;;;111.07;42.88;;;;;;;-140.66;100.00;55571.53;4955643;29;20031;-73
2021/10/31 00:58:28;;;;;;;80.90;43.10;;;;;;;-140.66;100.00;55571.53;4960078;28;20406;-73
2021/10/31 01:01:13;;;;;;;75.18;40.33;;;;;;;-140.66;100.00;55571.53;4961825;28;20030;-74
2021/10/31 01:03:59;;;;;;;70.07;39.05;;;;;;;-140.66;100.00;55571.53;4961105;28;20126;-72
2021/10/31 01:06:51;;;;;;;74.63;40.45;;;;;;;-140.66;100.00;55571.53;4961269;28;20031;-73
2021/10/31 01:09:50;;;;;;;68.47;38.95;;;;;;;-140.66;100.00;55571.53;4961386;28;20457;-73
2021/10/31 01:12:51;;;;;;;71.97;40.38;;;;;;;-140.66;100.00;55571.53;4946290;29;20047;-73
2021/10/31 01:16:18;;;;;;;60.58;37.75;;;;;;;-140.66;100.00;55571.53;4961383;28;20027;-73
2021/10/31 01:19:30;;;;;;;60.40;35.95;;;;;;;-140.66;100.00;55571.53;4948968;29;20509;-74
2021/10/31 01:22:32;;;;;;;74.90;40.15;;;;;;;-140.66;100.00;55571.53;4960265;28;20035;-74
2021/10/31 01:25:43;;;;;;;58.38;36.25;;;;;;;-140.66;100.00;55571.53;4961006;28;20491;-72
2021/10/31 01:28:59;;;;;;;53.03;36.33;;;;;;;-140.66;100.00;55571.53;4961100;28;20449;-74
2021/10/31 01:32:02;;;;;;;58.67;36.22;;;;;;;-140.66;100.00;55571.53;4960801;28;20027;-73
2021/10/31 01:34:57;;;;;;;57.25;37.75;;;;;;;-140.66;100.00;55571.53;4961019;28;20039;-73
2021/10/31 01:38:05;;;;;;;58.17;37.35;;;;;;;-140.66;100.00;55571.53;4960686;28;20457;-73
2021/10/31 01:41:03;;;;;;;55.97;36.47;;;;;;;-140.66;100.00;55571.53;4960143;28;20113;-73
2021/10/31 01:44:05;;;;;;;51.53;34.35;;;;;;;-140.66;100.00;55571.53;4960925;28;20027;-73
2021/10/31 01:47:02;;;;;;;63.53;40.25;;;;;;;-140.66;100.00;55571.53;4958825;29;20046;-74
2021/10/31 01:50:03;;;;;;;57.08;37.00;;;;;;;-140.66;100.00;55571.53;4960893;28;20095;-73
2021/10/31 01:52:57;;;;;;;51.30;33.92;;;;;;;-140.66;100.00;55571.53;4959489;29;20146;-73
2021/10/31 01:55:56;;;;;;;52.58;33.75;;;;;;;-140.66;100.00;55571.53;4960320;28;20039;-74
2021/10/31 01:58:50;;;;;;;46.78;32.45;;;;;;;-140.66;100.00;55571.53;4960269;28;20034;-72
2021/10/31 02:01:38;;;;;;;45.70;30.85;;;;;;;-140.66;100.00;55571.53;4945155;29;20031;-73
2021/10/31 02:04:26;;;;;;;44.00;29.83;;;;;;;-140.66;100.00;55571.53;4960896;28;20031;-74
2021/10/31 02:07:12;;;;;;;40.78;29.08;;;;;;;-140.66;100.00;55571.53;4960362;28;20428;-73
2021/10/31 02:10:00;;;;;;;45.38;30.73;;;;;;;-140.66;100.00;55571.53;4960002;28;20027;-74
2021/10/31 02:12:47;;;;;;;40.75;28.67;;;;;;;-140.66;100.00;55571.53;4960353;28;20031;-73
2021/10/31 02:15:33;;;;;;;41.63;28.50;;;;;;;-140.66;100.00;55571.53;4959041;29;20119;-73
2021/10/31 02:18:22;;;;;;;42.63;28.17;;;;;;;-140.66;100.00;55571.53;4959815;28;20052;-73
2021/10/31 02:21:10;;;;;;;39.53;28.05;;;;;;;-140.66;100.00;55571.53;4944871;29;20054;-74
2021/10/31 02:23:58;;;;;;;38.08;27.73;;;;;;;-140.66;100.00;55571.53;4944671;29;20031;-74
2021/10/31 02:26:44;;;;;;;39.17;28.60;;;;;;;-140.66;100.00;55571.53;4960210;28;20027;-74
2021/10/31 02:29:30;;;;;;;41.72;28.67;;;;;;;-140.66;100.00;55571.53;4960028;28;20031;-74
2021/10/31 02:32:16;;;;;;;42.97;29.98;;;;;;;-140.66;100.00;55571.53;4944642;29;20042;-73
2021/10/31 02:35:05;;;;;;;39.78;27.83;;;;;;;-140.66;100.00;55571.53;4959748;28;20031;-73
2021/10/31 02:37:51;;;;;;;38.60;28.00;;;;;;;-140.66;100.00;55571.53;4959436;28;20121;-73
2021/10/31 02:40:37;;;;;;;37.60;27.20;;;;;;;-140.66;100.00;55571.53;4960026;28;20039;-74
2021/10/31 02:43:23;;;;;;;39.10;28.10;;;;;;;-140.66;100.00;55571.53;4959724;28;20027;-73
2021/10/31 02:46:09;;;;;;;39.00;27.10;;;;;;;-140.66;100.00;55571.53;4959642;28;20034;-74
2021/10/31 02:48:55;;;;;;;41.47;27.98;;;;;;;-140.66;100.00;55571.53;4959517;28;20019;-72
2021/10/31 02:51:51;;;;;;;40.45;27.67;;;;;;;-140.66;100.00;55571.53;4959479;28;20119;-74
2021/10/31 02:54:51;;;;;;;39.60;28.17;;;;;;;-140.66;100.00;55571.53;4959604;28;20037;-73
2021/10/31 02:57:42;;;;;;;41.95;28.38;;;;;;;-140.66;100.00;55571.53;4959492;28;20358;-72
2021/10/31 03:00:30;;;;;;;41.65;28.02;;;;;;;-140.66;100.00;55571.53;4959463;28;20027;-73
2021/10/31 03:03:16;;;;;;;42.00;27.92;;;;;;;-140.66;100.00;55571.53;4959598;28;20031;-72
2021/10/31 03:06:04;;;;;;;45.28;28.92;;;;;;;-140.66;100.00;55571.53;4957463;29;20031;-73
2021/10/31 03:08:50;;;;;;;45.83;29.73;;;;;;;-140.66;100.00;55571.53;4958922;28;20031;-72
2021/10/31 03:11:36;;;;;;;43.85;28.98;;;;;;;-140.66;100.00;55571.53;4959320;28;20023;-73
2021/10/31 03:14:21;;;;;;;42.58;28.65;;;;;;;-140.66;100.00;55571.53;4944025;29;20089;-74
2021/10/31 03:17:07;;;;;;;43.80;28.25;;;;;;;-140.66;100.00;55571.53;4958726;28;20030;-73
2021/10/31 03:19:53;;;;;;;40.20;27.10;;;;;;;-140.66;100.00;55571.53;4958072;28;20051;-73
2021/10/31 03:22:39;;;;;;;44.67;28.75;;;;;;;-140.66;100.00;55571.53;4958986;28;20476;-74
2021/10/31 03:25:25;;;;;;;50.95;31.45;;;;;;;-140.66;100.00;55571.53;4959034;28;20105;-72
2021/10/31 03:28:11;;;;;;;49.80;29.65;;;;;;;-140.66;100.00;55571.53;4959094;28;20130;-74
2021/10/31 03:30:57;;;;;;;49.72;31.65;;;;;;;-140.66;100.00;55571.53;4959033;28;20031;-73
2021/10/31 03:33:43;;;;;;;56.67;34.50;;;;;;;-140.66;100.00;55571.53;4958516;28;20039;-73
2021/10/31 03:36:29;;;;;;;56.83;33.42;;;;;;;-140.66;100.00;55571.53;4958903;28;20034;-73
2021/10/31 03:39:16;;;;;;;55.03;32.85;;;;;;;-140.66;100.00;55571.53;4942654;29;20038;-74
2021/10/31 03:42:03;;;;;;;59.47;34.53;;;;;;;-140.66;100.00;55571.53;4943197;29;20026;-73
2021/10/31 03:44:50;;;;;;;58.50;36.13;;;;;;;-140.66;100.00;55571.53;4942915;29;20068;-72
2021/10/31 03:47:42;;;;;;;55.65;33.85;;;;;;;-140.66;100.00;55571.53;4944379;28;20027;-73
2021/10/31 03:50:28;;;;;;;55.33;32.22;;;;;;;-140.66;100.00;55571.53;4958638;28;20474;-75
2021/10/31 03:53:14;;;;;;;56.20;32.67;;;;;;;-140.66;100.00;55571.53;4958333;28;20069;-74
2021/10/31 03:55:59;;;;;;;51.22;31.00;;;;;;;-140.66;100.00;55571.53;4958337;28;20027;-73
2021/10/31 03:58:45;;;;;;;53.80;32.40;;;;;;;-140.66;100.00;55571.53;4958157;28;20031;-74
2021/10/31 04:01:32;;;;;;;53.80;32.90;;;;;;;-140.66;100.00;55571.53;4958160;28;20038;-72
2021/10/31 04:04:18;;;;;;;51.50;32.88;;;;;;;-140.66;100.00;55571.53;4943720;29;20058;-73
2021/10/31 04:07:04;;;;;;;57.67;35.10;;;;;;;-140.66;100.00;55571.53;4957768;28;20045;-74
2021/10/31 04:09:50;;;;;;;53.80;34.45;;;;;;;-140.66;100.00;55571.53;4957927;28;20035;-73
2021/10/31 04:12:36;;;;;;;50.78;32.78;;;;;;;-140.66;100.00;55571.53;4957542;28;20118;-73
2021/10/31 04:15:22;;;;;;;52.35;33.65;;;;;;;-140.66;100.00;55571.53;4958131;28;20031;-73
2021/10/31 04:18:10;;;;;;;52.70;33.33;;;;;;;-140.66;100.00;55571.53;4942728;29;20062;-74
2021/10/31 04:20:56;;;;;;;57.50;34.20;;;;;;;-140.66;100.00;55571.53;4957734;28;20067;-73
2021/10/31 04:23:42;;;;;;;50.53;33.47;;;;;;;-140.66;100.00;55571.53;4943047;29;20024;-72
2021/10/31 04:26:28;;;;;;;48.03;31.42;;;;;;;-140.66;100.00;55571.53;4957532;28;20346;-73
2021/10/31 04:29:13;;;;;;;48.22;32.35;;;;;;;-140.66;100.00;55571.53;4957771;28;20423;-72
2021/10/31 04:31:59;;;;;;;42.47;30.23;;;;;;;-140.66;100.00;55571.53;4956892;28;20106;-73
2021/10/31 04:34:45;;;;;;;46.55;30.77;;;;;;;-140.66;100.00;55571.53;4957508;28;20541;-73
2021/10/31 04:37:33;;;;;;;44.28;29.00;;;;;;;-140.66;100.00;55571.53;4957942;28;20057;-73
2021/10/31 04:40:21;;;;;;;43.70;30.52;;;;;;;-140.66;100.00;55571.53;4956236;29;20027;-73
2021/10/31 04:43:11;;;;;;;46.60;30.58;;;;;;;-140.66;100.00;55571.53;4957228;28;20038;-73
2021/10/31 04:45:57;;;;;;;44.70;30.77;;;;;;;-140.66;100.00;55571.53;4957736;28;20039;-74
2021/10/31 04:48:42;;;;;;;48.72;31.58;;;;;;;-140.66;100.00;55571.53;4942505;29;20040;-73
2021/10/31 04:51:28;;;;;;;41.25;28.40;;;;;;;-140.66;100.00;55571.53;4957277;28;20045;-73
2021/10/31 04:54:14;;;;;;;46.28;31.13;;;;;;;-140.66;100.00;55571.53;4957403;28;20019;-73
2021/10/31 04:57:00;;;;;;;43.42;30.00;;;;;;;-140.66;100.00;55571.53;4957013;28;20109;-74
2021/10/31 04:59:46;;;;;;;42.20;29.45;;;;;;;-140.66;100.00;55571.53;4957171;28;20019;-73
2021/10/31 05:02:33;;;;;;;42.85;30.17;;;;;;;-140.66;100.00;55571.53;4942711;29;20031;-73
2021/10/31 05:05:19;;;;;;;43.67;30.42;;;;;;;-140.66;100.00;55571.53;4942294;29;20031;-72
2021/10/31 05:08:06;;;;;;;41.47;29.40;;;;;;;-140.66;100.00;55571.53;4957267;28;20042;-73
2021/10/31 05:10:51;;;;;;;43.58;30.00;;;;;;;-140.66;100.00;55571.53;4941888;29;20126;-73
2021/10/31 05:13:37;;;;;;;44.25;30.50;;;;;;;-140.66;100.00;55571.53;4957102;28;20106;-72
2021/10/31 05:16:23;;;;;;;42.05;29.70;;;;;;;-140.66;100.00;55571.53;4957276;28;20121;-73
2021/10/31 05:19:10;;;;;;;46.25;31.75;;;;;;;-140.66;100.00;55571.53;4957057;28;20462;-72
2021/10/31 05:21:55;;;;;;;54.08;34.80;;;;;;;-140.66;100.00;55571.53;4942008;29;20042;-74
2021/10/31 05:24:41;;;;;;;51.20;33.75;;;;;;;-140.66;100.00;55571.53;4957647;28;20118;-74
2021/10/31 05:27:27;;;;;;;55.63;34.90;;;;;;;-140.66;100.00;55571.53;4941994;29;20042;-73
2021/10/31 05:30:13;;;;;;;57.95;37.47;;;;;;;-140.66;100.00;55571.53;4956946;28;20038;-72
2021/10/31 05:32:59;;;;;;;50.72;33.45;;;;;;;-140.66;100.00;55571.53;4942985;29;20114;-74
2021/10/31 05:35:46;;;;;;;48.33;31.70;;;;;;;-140.66;100.00;55571.53;4957153;28;20042;-74
2021/10/31 05:38:32;;;;;;;53.42;33.55;;;;;;;-140.66;100.00;55571.53;4957261;28;20460;-73
2021/10/31 05:41:18;;;;;;;54.47;32.38;;;;;;;-140.66;100.00;55571.53;4942320;29;20039;-74
2021/10/31 05:44:04;;;;;;;59.10;33.25;;;;;;;-140.66;100.00;55571.53;4958715;28;20449;-73
2021/10/31 05:46:50;;;;;;;202.27;41.38;;;;;;;-140.66;100.00;55571.53;4960453;28;20445;-73
2021/10/31 05:49:36;;;;;;;59.33;33.35;;;;;;;-140.66;100.00;55571.53;4960377;28;20023;-72
2021/10/31 05:52:22;;;;;;;58.75;33.45;;;;;;;-140.66;100.00;55571.53;4945149;29;20070;-73
2021/10/31 05:55:10;;;;;;;48.85;32.17;;;;;;;-140.66;100.00;55571.53;4932581;29;20106;-74
2021/10/31 05:57:56;;;;;;;46.85;30.83;;;;;;;-140.66;100.00;55571.53;4960924;28;20027;-74
2021/10/31 06:00:41;;;;;;;50.97;31.70;;;;;;;-140.66;100.00;55571.53;4946039;29;20031;-74
2021/10/31 06:03:28;;;;;;;59.55;34.13;;;;;;;-140.66;100.00;55571.53;4945594;29;20023;-73
2021/10/31 06:06:16;;;;;;;51.78;33.22;;;;;;;-140.66;100.00;55571.53;4959637;28;20031;-74
2021/10/31 06:09:03;;;;;;;54.58;34.78;;;;;;;-140.66;100.00;55571.53;4960253;28;20075;-73
2021/10/31 06:11:49;;;;;;;60.53;35.55;;;;;;;-140.66;100.00;55571.53;4960427;28;20035;-72
2021/10/31 06:14:35;;;;;;;59.28;34.78;;;;;;;-140.66;100.00;55571.53;4960044;28;20428;-73
2021/10/31 06:17:21;;;;;;;68.95;38.22;;;;;;;-140.66;100.00;55571.53;4944910;29;20027;-77
2021/10/31 06:20:11;;;;;;;61.65;35.60;;;;;;;-140.66;100.00;55571.53;4959542;28;20039;-72
2021/10/31 06:22:57;;;;;;;70.07;38.67;;;;;;;-140.66;100.00;55571.53;4945131;29;20042;-74
2021/10/31 06:25:43;;;;;;;72.40;38.97;;;;;;;-140.66;100.00;55571.53;4959793;28;20027;-74
2021/10/31 06:28:29;;;;;;;64.20;36.92;;;;;;;-140.66;100.00;55571.53;4959501;28;20038;-74
2021/10/31 06:31:15;;;;;;;68.70;38.08;;;;;;;-140.66;100.00;55571.53;4944612;29;20086;-74
2021/10/31 06:34:00;;;;;;;64.82;37.72;;;;;;;-140.66;100.00;55571.53;4959935;28;20039;-73
2021/10/31 06:36:46;;;;;;;58.50;34.60;;;;;;;-140.66;100.00;55571.53;4959515;28;20079;-73
2021/10/31 06:39:32;;;;;;;57.58;34.05;;;;;;;-140.66;100.00;55571.53;4944668;29;20118;-73
2021/10/31 06:42:18;;;;;;;63.80;37.33;;;;;;;-140.66;100.00;55571.53;4959441;28;20023;-73
2021/10/31 06:45:04;;;;;;;58.25;35.45;;;;;;;-140.66;100.00;55571.53;4959816;28;20445;-74
2021/10/31 06:47:50;;;;;;;60.78;37.10;;;;;;;-140.66;100.00;55571.53;4944209;29;20050;-73
2021/10/31 06:50:36;;;;;;;57.17;35.63;;;;;;;-140.66;100.00;55571.53;4959386;28;20369;-74
2021/10/31 06:53:22;;;;;;;56.40;35.50;;;;;;;-140.66;100.00;55571.53;4944268;29;20510;-73
2021/10/31 06:56:08;;;;;;;54.03;33.33;;;;;;;-140.66;100.00;55571.53;4957820;28;20035;-74
2021/10/31 06:58:54;;;;;;;55.58;33.38;;;;;;;-140.66;100.00;55571.53;4959285;28;20094;-72
2021/10/31 07:01:39;;;;;;;55.60;34.35;;;;;;;-140.66;100.00;55571.53;4944556;29;20062;-73
2021/10/31 07:04:26;;;;;;;53.75;33.05;;;;;;;-140.66;100.00;55571.53;4959601;28;20070;-73
2021/10/31 07:07:14;;;;;;;48.97;32.33;;;;;;;-140.66;100.00;55571.53;4959415;28;20106;-73
2021/10/31 07:09:59;;;;;;;60.65;34.75;;;;;;;-140.66;100.00;55571.53;4959154;28;20019;-73
2021/10/31 07:12:45;;;;;;;50.50;30.23;;;;;;;-140.66;100.00;55571.53;4959352;28;20106;-74
2021/10/31 07:15:31;;;;;;;50.85;32.35;;;;;;;-140.66;100.00;55571.53;4943873;29;20034;-75
2021/10/31 07:18:17;;;;;;;47.83;30.52;;;;;;;-140.66;100.00;55571.53;4943616;28;20047;-73
2021/10/31 07:21:03;;;;;;;57.97;32.30;;;;;;;-140.66;100.00;55571.53;4959205;28;20035;-73
2021/10/31 07:23:48;;;;;;;55.88;33.13;;;;;;;-140.66;100.00;55571.53;4943860;29;20138;-73
2021/10/31 07:26:34;;;;;;;51.17;31.90;;;;;;;-140.66;100.00;55571.53;4959122;28;20019;-74
2021/10/31 07:29:20;;;;;;;54.63;32.88;;;;;;;-140.66;100.00;55571.53;4958823;28;20031;-74
2021/10/31 07:32:06;;;;;;;45.75;29.42;;;;;;;-140.66;100.00;55571.53;4958770;28;20373;-74
2021/10/31 07:34:52;;;;;;;46.88;30.20;;;;;;;-140.66;100.00;55571.53;4943445;29;20031;-75
2021/10/31 07:37:38;;;;;;;49.63;30.45;;;;;;;-140.66;100.00;55571.53;4958737;28;20046;-75
2021/10/31 07:40:24;;;;;;;50.60;31.45;;;;;;;-140.66;100.00;55571.53;4943560;29;20038;-74
2021/10/31 07:43:10;;;;;;;47.63;30.83;;;;;;;-140.66;100.00;55571.53;4958415;28;20078;-74
2021/10/31 07:45:56;;;;;;;46.85;30.92;;;;;;;-140.66;100.00;55571.53;4958223;28;20438;-74
2021/10/31 07:48:41;;;;;;;46.20;30.63;;;;;;;-140.66;100.00;55571.53;4958581;28;20039;-73
2021/10/31 07:51:28;;;;;;;50.05;31.25;;;;;;;-140.66;100.00;55571.53;4958169;28;20023;-73
2021/10/31 07:54:17;;;;;;;51.55;32.95;;;;;;;-140.66;100.00;55571.53;4958544;28;20035;-73
2021/10/31 07:57:04;;;;;;;57.45;35.10;;;;;;;-140.66;100.00;55571.53;4958365;28;20031;-74
2021/10/31 07:59:51;;;;;;;52.90;33.83;;;;;;;-140.66;100.00;55571.53;4958049;28;20035;-73
2021/10/31 08:02:37;;;;;;;50.05;32.45;;;;;;;-140.66;100.00;55571.53;4942838;29;20390;-73
2021/10/31 08:05:25;;;;;;;47.70;31.38;;;;;;;-140.66;100.00;55571.53;4943452;29;20031;-73
2021/10/31 08:08:11;;;;;;;47.85;30.75;;;;;;;-140.66;100.00;55571.53;4956367;28;20030;-72
2021/10/31 08:10:57;;;;;;;50.53;31.75;;;;;;;-140.66;100.00;55571.53;4958403;28;20031;-73
2021/10/31 08:13:44;;;;;;;48.90;29.42;;;;;;;-140.66;100.00;55571.53;4943075;29;20023;-73
2021/10/31 08:16:31;;;;;;;42.60;28.48;;;;;;;-140.66;100.00;55571.53;4957629;28;20130;-73
2021/10/31 08:19:24;;;;;;;44.70;27.33;;;;;;;-140.66;100.00;55571.53;4957584;28;20146;-74
2021/10/31 08:22:09;;;;;;;46.53;27.88;;;;;;;-140.66;100.00;55571.53;4958069;28;20466;-73
2021/10/31 08:24:56;;;;;;;44.78;27.92;;;;;;;-140.66;100.00;55571.53;4942526;29;20073;-73
2021/10/31 08:27:41;;;;;;;42.10;26.63;;;;;;;-140.66;100.00;55571.53;4942458;29;20093;-73
2021/10/31 08:30:31;;;;;;;44.00;27.15;;;;;;;-140.66;100.00;55571.53;4957714;28;20035;-74
2021/10/31 08:33:20;;;;;;;42.28;27.17;;;;;;;-140.66;100.00;55571.53;4957702;28;20043;-74
2021/10/31 08:36:06;;;;;;;43.15;28.25;;;;;;;-140.66;100.00;55571.53;4958027;28;20113;-73
2021/10/31 08:38:53;;;;;;;47.92;29.67;;;;;;;-140.66;100.00;55571.53;4942797;29;20031;-74
2021/10/31 08:41:38;;;;;;;49.30;30.88;;;;;;;-140.66;100.00;55571.53;4956289;29;20165;-74
2021/10/31 08:44:25;;;;;;;47.25;30.10;;;;;;;-140.66;100.00;55571.53;4956194;29;20423;-73
2021/10/31 08:47:11;;;;;;;49.00;30.92;;;;;;;-140.66;100.00;55571.53;4957308;28;20461;-73
2021/10/31 08:49:57;;;;;;;48.47;31.60;;;;;;;-140.66;100.00;55571.53;4957419;28;20031;-74
2021/10/31 08:52:42;;;;;;;49.88;32.03;;;;;;;-140.66;100.00;55571.53;4957552;28;20421;-75
2021/10/31 08:55:28;;;;;;;47.00;30.77;;;;;;;-140.66;100.00;55571.53;4942627;29;20067;-73
2021/10/31 08:58:14;;;;;;;45.55;29.58;;;;;;;-140.66;100.00;55571.53;4957386;28;20524;-74
2021/10/31 09:01:00;;;;;;;46.88;29.90;;;;;;;-140.66;100.00;55571.53;4957224;28;20058;-74
2021/10/31 09:03:47;;;;;;;47.58;31.92;;;;;;;-140.66;100.00;55571.53;4957733;28;20034;-74
2021/10/31 09:06:33;;;;;;;48.72;32.47;;;;;;;-140.66;100.00;55571.53;4956242;29;20497;-73
2021/10/31 09:09:19;;;;;;;38.80;28.70;;;;;;;-140.66;100.00;55571.53;4955771;29;20031;-73
2021/10/31 09:12:05;;;;;;;42.78;28.42;;;;;;;-140.66;100.00;55571.53;4942750;29;20382;-74
2021/10/31 09:14:51;;;;;;;40.22;26.95;;;;;;;-140.66;100.00;55571.53;4942443;29;20023;-73
2021/10/31 09:17:37;;;;;;;38.70;25.00;;;;;;;-140.66;100.00;55571.53;4957167;28;20102;-73
2021/10/31 09:20:25;;;;;;;36.70;25.20;;;;;;;-140.66;100.00;55571.53;4961335;28;20454;-74
2021/10/31 09:23:11;;;;;;;35.08;25.58;;;;;;;-140.66;100.00;55571.53;4959369;29;20031;-74
2021/10/31 09:25:58;;;;;;;33.08;22.85;;;;;;;-140.66;100.00;55571.53;4960830;28;20023;-74
2021/10/31 09:28:43;;;;;;;33.42;22.88;;;;;;;-140.66;100.00;55571.53;4961342;28;20038;-74
2021/10/31 09:31:29;;;;;;;31.70;21.33;;;;;;;-140.66;100.00;55571.53;4961232;28;20461;-73
2021/10/31 09:34:15;;;;;;;29.95;20.15;;;;;;;-140.66;100.00;55571.53;4961473;28;20114;-74
2021/10/31 09:37:02;;;;;;;29.00;21.13;;;;;;;-140.66;100.00;55571.53;4960664;28;20456;-74
2021/10/31 09:39:49;;;;;;;27.10;20.33;;;;;;;-140.66;100.00;55571.53;4960826;28;20454;-73
2021/10/31 09:42:35;;;;;;;25.50;19.33;;;;;;;-140.66;100.00;55571.53;4960167;28;20122;-73
2021/10/31 09:45:23;;;;;;;24.98;18.90;;;;;;;-140.66;100.00;55571.53;4960802;28;20031;-73
2021/10/31 09:48:11;;;;;;;29.02;19.20;;;;;;;-140.66;100.00;55571.53;4945346;29;20035;-73
2021/10/31 09:50:59;;;;;;;24.00;17.85;;;;;;;-140.66;100.00;55571.53;4945526;29;20063;-73
2021/10/31 09:53:45;;;;;;;33.03;18.58;;;;;;;-140.66;100.00;55571.53;4945783;29;20122;-72
2021/10/31 09:56:34;;;;;;;30.50;22.50;;;;;;;-140.66;100.00;55571.53;4945214;29;20027;-73
2021/10/31 09:59:25;;;;;;;24.15;19.05;;;;;;;-140.66;100.00;55571.53;4959511;29;20127;-74
2021/10/31 10:02:14;;;;;;;26.80;18.85;;;;;;;-140.66;100.00;55571.53;4960575;28;20027;-73
2021/10/31 10:05:00;;;;;;;24.17;17.05;;;;;;;-140.66;100.00;55571.53;4960312;28;20038;-74
2021/10/31 10:07:47;;;;;;;21.83;15.82;;;;;;;-140.66;100.00;55571.53;4960505;28;20090;-74
2021/10/31 10:10:51;;;;;;;27.15;18.77;;;;;;;-140.66;100.00;55571.53;4960218;28;20142;-74
2021/10/31 10:13:36;;;;;;;22.90;16.17;;;;;;;-140.66;100.00;55571.53;4945377;29;20039;-74
2021/10/31 10:16:28;;;;;;;26.15;16.65;;;;;;;-140.66;100.00;55571.53;4944950;29;20106;-73
2021/10/31 10:19:23;;;;;;;22.73;16.88;;;;;;;-140.66;100.00;55571.53;4959572;28;20047;-73
2021/10/31 10:22:11;;;;;;;23.10;15.52;;;;;;;-140.66;100.00;55571.53;4960151;28;20027;-74
2021/10/31 10:25:00;;;;;;;22.17;15.98;;;;;;;-140.66;100.00;55571.53;4959909;28;20110;-74
2021/10/31 10:27:53;;;;;;;20.20;14.52;;;;;;;-140.66;100.00;55571.53;4944490;29;20046;-73
2021/10/31 10:30:39;;;;;;;22.30;16.45;;;;;;;-140.66;100.00;55571.53;4957495;28;20050;-73
2021/10/31 10:33:25;;;;;;;21.63;14.93;;;;;;;-140.66;100.00;55571.53;4958482;29;20043;-73
2021/10/31 10:36:15;;;;;;;19.25;14.98;;;;;;;-140.66;100.00;55571.53;4960040;28;20039;-73
2021/10/31 10:39:13;;;;;;;21.10;14.93;;;;;;;-140.66;100.00;55571.53;4944688;29;20130;-73
2021/10/31 10:41:58;;;;;;;19.95;14.77;;;;;;;-140.66;100.00;55571.53;4960078;28;20509;-74
2021/10/31 10:44:44;;;;;;;22.67;14.98;;;;;;;-140.66;100.00;55571.53;4959435;28;20178;-73
2021/10/31 10:47:32;;;;;;;20.65;14.90;;;;;;;-140.66;100.00;55571.53;4959883;28;20386;-74
2021/10/31 10:50:23;;;;;;;21.05;15.00;;;;;;;-140.66;100.00;55571.53;4959686;28;20031;-74
2021/10/31 10:53:17;;;;;;;21.65;14.70;;;;;;;-140.66;100.00;55571.53;4959399;28;20039;-74
2021/10/31 10:56:10;;;;;;;22.27;14.80;;;;;;;-140.66;100.00;55571.53;4959335;28;20077;-73
2021/10/31 10:58:55;;;;;;;20.67;14.02;;;;;;;-140.66;100.00;55571.53;4959269;28;20031;-73
2021/10/31 11:01:41;;;;;;;19.10;13.38;;;;;;;-140.66;100.00;55571.53;4944532;29;20027;-73
2021/10/31 11:04:31;;;;;;;19.05;13.20;;;;;;;-140.66;100.00;55571.53;4959383;28;20027;-73
2021/10/31 11:07:16;;;;;;;17.10;12.25;;;;;;;-140.66;100.00;55571.53;4959184;28;20403;-74
2021/10/31 11:10:08;;;;;;;24.52;12.15;;;;;;;-140.66;100.00;55571.53;4959044;28;20058;-74
2021/10/31 11:12:56;;;;;;;19.95;11.93;;;;;;;-140.66;100.00;55571.53;4959343;28;20118;-74
2021/10/31 11:15:42;;;;;;;19.38;11.85;;;;;;;-140.66;100.00;55571.53;4957650;29;20033;-73
2021/10/31 11:18:28;;;;;;;22.27;12.63;;;;;;;-140.66;100.00;55571.53;4958817;28;20086;-74
2021/10/31 11:21:14;;;;;;;21.42;12.50;;;;;;;-140.66;100.00;55571.53;4958380;28;20105;-73
2021/10/31 11:24:03;;;;;;;18.50;11.88;;;;;;;-140.66;100.00;55571.53;4958663;28;20039;-73
2021/10/31 11:26:49;;;;;;;17.15;10.93;;;;;;;-140.66;100.00;55571.53;4957782;29;20039;-74
2021/10/31 11:29:35;;;;;;;14.55;10.70;;;;;;;-140.66;100.00;55571.53;4958531;28;20488;-74
2021/10/31 11:32:23;;;;;;;15.15;10.85;;;;;;;-140.66;100.00;55571.53;4959222;28;20035;-74
2021/10/31 11:35:12;;;;;;;15.15;9.95;;;;;;;-140.66;100.00;55571.53;4958795;28;20478;-73
2021/10/31 11:38:09;;;;;;;14.75;10.27;;;;;;;-140.66;100.00;55571.53;4943896;29;20338;-73
2021/10/31 11:41:03;;;;;;;13.23;9.18;;;;;;;-140.66;100.00;55571.53;4957478;28;20023;-75
2021/10/31 11:43:53;;;;;;;16.85;11.38;;;;;;;-140.66;100.00;55571.53;4958118;28;20031;-74
2021/10/31 11:46:41;;;;;;;15.20;10.27;;;;;;;-140.66;100.00;55571.53;4958877;28;20058;-74
2021/10/31 11:49:27;;;;;;;16.35;10.48;;;;;;;-140.66;100.00;55571.53;4958386;28;20049;-75
2021/10/31 11:53:01;;;;;;;14.35;10.00;;;;;;;-140.66;100.00;55571.53;4958495;28;20114;-73
2021/10/31 11:55:51;;;;;;;14.15;10.07;;;;;;;-140.66;100.00;55571.53;4957226;29;20031;-74
2021/10/31 11:58:46;;;;;;;16.70;9.65;;;;;;;-140.66;100.00;55571.53;4958166;28;20529;-74
2021/10/31 12:01:32;;;;;;;16.13;9.13;;;;;;;-140.66;100.00;55571.53;4943381;29;20050;-74
2021/10/31 12:04:56;;;;;;;15.02;9.57;;;;;;;-140.66;100.00;55571.53;4957094;29;20090;-73
2021/10/31 12:07:45;;;;;;;13.48;9.25;;;;;;;-140.66;100.00;55571.53;4943485;29;20019;-73
2021/10/31 12:10:30;;;;;;;13.25;9.20;;;;;;;-140.66;100.00;55571.53;4957220;29;20445;-74
2021/10/31 12:13:19;;;;;;;17.08;9.45;;;;;;;-140.66;100.00;55571.53;4943686;29;20035;-74
2021/10/31 12:16:04;;;;;;;15.75;9.20;;;;;;;-140.66;100.00;55571.53;4957358;28;20046;-74
2021/10/31 12:18:51;;;;;;;15.73;10.30;;;;;;;-140.66;100.00;55571.53;4943192;29;20382;-74
2021/10/31 12:21:39;;;;;;;18.42;10.43;;;;;;;-140.66;100.00;55571.53;4958217;28;20041;-73
2021/10/31 12:24:35;;;;;;;13.75;9.55;;;;;;;-140.66;100.00;55571.53;4957773;28;20030;-73
2021/10/31 12:27:24;;;;;;;14.57;9.88;;;;;;;-140.66;100.00;55571.53;4957648;28;20178;-74